createdAt,value
2018-12-11T00:00:57.494Z,6.70
2018-12-11T00:02:02.327Z,6.70
2018-12-11T00:03:06.776Z,6.70
2018-12-11T00:04:11.669Z,6.70
2018-12-11T00:05:17.083Z,6.70
2018-12-11T00:06:22.997Z,6.70
2018-12-11T00:07:27.287Z,6.70
2018-12-11T00:08:31.500Z,6.70
2018-12-11T00:09:35.967Z,6.70
2018-12-11T00:10:41.074Z,6.70
2018-12-11T00:11:45.631Z,6.70
2018-12-11T00:12:50.803Z,6.70
2018-12-11T00:13:56.082Z,6.70
2018-12-11T00:15:01.758Z,6.70
2018-12-11T00:16:07.775Z,6.70
2018-12-11T00:17:12.069Z,6.70
2018-12-11T00:18:16.377Z,6.70
2018-12-11T00:19:20.817Z,6.80
2018-12-11T00:20:25.347Z,6.80
2018-12-11T00:21:29.697Z,6.90
2018-12-11T00:22:33.946Z,6.90
2018-12-11T00:23:39.645Z,6.90
2018-12-11T00:24:44.103Z,6.90
2018-12-11T00:25:49.754Z,6.80
2018-12-11T00:26:54.307Z,6.80
2018-12-11T00:28:02.081Z,6.80
2018-12-11T00:29:06.397Z,6.80
2018-12-11T00:31:39.743Z,6.70
2018-12-11T00:32:44.328Z,6.70
2018-12-11T00:33:49.300Z,6.80
2018-12-11T00:34:55.377Z,6.80
2018-12-11T00:35:59.809Z,6.80
2018-12-11T00:37:04.527Z,6.80
2018-12-11T00:38:08.862Z,6.80
2018-12-11T00:39:13.141Z,6.80
2018-12-11T00:40:17.439Z,6.80
2018-12-11T00:41:21.770Z,6.80
2018-12-11T00:43:35.009Z,6.80
2018-12-11T00:44:39.411Z,6.80
2018-12-11T00:45:43.691Z,6.80
2018-12-11T00:46:48.161Z,6.80
2018-12-11T00:47:52.868Z,6.80
2018-12-11T00:48:57.264Z,6.80
2018-12-11T00:50:01.677Z,6.80
2018-12-11T00:51:05.966Z,6.80
2018-12-11T00:52:10.175Z,6.80
2018-12-11T00:53:14.598Z,6.80
2018-12-11T00:54:19.014Z,6.80
2018-12-11T00:55:23.195Z,6.80
2018-12-11T00:56:27.531Z,6.80
2018-12-11T00:57:31.776Z,6.90
2018-12-11T00:58:36.490Z,6.90
2018-12-11T00:59:40.675Z,6.90
2018-12-11T01:00:45.539Z,6.80
2018-12-11T01:01:50.085Z,6.80
2018-12-11T01:02:54.388Z,6.80
2018-12-11T01:03:58.595Z,6.80
2018-12-11T01:05:02.862Z,6.80
2018-12-11T01:06:07.522Z,6.80
2018-12-11T01:07:11.782Z,6.80
2018-12-11T01:08:16.649Z,6.80
2018-12-11T01:09:21.107Z,6.80
2018-12-11T01:10:25.530Z,6.70
2018-12-11T01:11:31.394Z,6.70
2018-12-11T01:12:35.637Z,6.70
2018-12-11T01:13:39.933Z,6.70
2018-12-11T01:14:44.333Z,6.70
2018-12-11T01:15:48.658Z,6.70
2018-12-11T01:16:52.883Z,6.80
2018-12-11T01:17:57.500Z,6.80
2018-12-11T01:19:01.865Z,6.80
2018-12-11T01:20:06.900Z,6.80
2018-12-11T01:21:11.336Z,6.80
2018-12-11T01:22:15.598Z,6.80
2018-12-11T01:23:20.105Z,6.70
2018-12-11T01:24:24.817Z,6.80
2018-12-11T01:25:29.001Z,6.80
2018-12-11T01:26:33.403Z,6.80
2018-12-11T01:27:39.946Z,6.80
2018-12-11T01:28:44.123Z,6.80
2018-12-11T01:29:48.777Z,6.80
2018-12-11T01:30:53.079Z,6.80
2018-12-11T01:31:57.307Z,6.70
2018-12-11T01:33:01.460Z,6.70
2018-12-11T01:34:05.709Z,6.70
2018-12-11T01:35:10.017Z,6.70
2018-12-11T01:36:14.310Z,6.70
2018-12-11T01:37:19.006Z,6.60
2018-12-11T01:38:23.481Z,6.60
2018-12-11T01:39:28.636Z,6.60
2018-12-11T01:40:33.906Z,6.50
2018-12-11T01:41:38.352Z,6.50
2018-12-11T01:42:42.641Z,6.60
2018-12-11T01:43:46.867Z,6.60
2018-12-11T01:44:51.103Z,6.60
2018-12-11T01:45:55.503Z,6.60
2018-12-11T01:46:59.962Z,6.60
2018-12-11T01:48:04.205Z,6.60
2018-12-11T01:49:08.871Z,6.60
2018-12-11T01:50:13.329Z,6.60
2018-12-11T01:51:17.500Z,6.60
2018-12-11T01:52:21.743Z,6.60
2018-12-11T01:53:26.104Z,6.60
2018-12-11T01:54:31.336Z,6.60
2018-12-11T01:55:35.367Z,6.50
2018-12-11T01:56:39.523Z,6.60
2018-12-11T01:57:43.679Z,6.60
2018-12-11T01:58:47.725Z,6.60
2018-12-11T01:59:51.773Z,6.60
2018-12-11T02:00:56.323Z,6.60
2018-12-11T02:02:00.511Z,6.60
2018-12-11T02:03:05.125Z,6.60
2018-12-11T02:04:18.258Z,6.60
2018-12-11T02:05:22.614Z,6.60
2018-12-11T02:06:27.408Z,6.60
2018-12-11T02:07:31.998Z,6.60
2018-12-11T02:08:36.247Z,6.60
2018-12-11T02:09:40.466Z,6.60
2018-12-11T02:10:44.621Z,6.60
2018-12-11T02:11:48.990Z,6.60
2018-12-11T02:12:53.198Z,6.60
2018-12-11T02:13:57.484Z,6.60
2018-12-11T02:15:01.663Z,6.60
2018-12-11T02:16:05.972Z,6.60
2018-12-11T02:17:10.197Z,6.60
2018-12-11T02:18:15.605Z,6.60
2018-12-11T02:19:20.481Z,6.60
2018-12-11T02:20:24.903Z,6.60
2018-12-11T02:21:29.342Z,6.60
2018-12-11T02:22:33.572Z,6.60
2018-12-11T02:23:38.077Z,6.60
2018-12-11T02:24:44.302Z,6.60
2018-12-11T02:25:49.082Z,6.60
2018-12-11T02:26:53.300Z,6.60
2018-12-11T02:27:59.071Z,6.60
2018-12-11T02:29:03.248Z,6.60
2018-12-11T02:30:07.895Z,6.60
2018-12-11T02:31:12.314Z,6.60
2018-12-11T02:32:16.884Z,6.70
2018-12-11T02:33:21.504Z,6.60
2018-12-11T02:34:25.754Z,6.60
2018-12-11T02:35:30.061Z,6.60
2018-12-11T02:36:34.323Z,6.60
2018-12-11T02:37:38.464Z,6.60
2018-12-11T02:38:44.190Z,6.50
2018-12-11T02:39:48.621Z,6.50
2018-12-11T02:40:52.839Z,6.50
2018-12-11T02:41:57.171Z,6.50
2018-12-11T02:43:01.376Z,6.50
2018-12-11T02:44:05.575Z,6.50
2018-12-11T02:45:11.247Z,6.40
2018-12-11T02:46:15.449Z,6.40
2018-12-11T02:47:20.648Z,6.50
2018-12-11T02:48:26.841Z,6.50
2018-12-11T02:49:32.312Z,6.50
2018-12-11T02:50:36.511Z,6.50
2018-12-11T02:51:41.194Z,6.60
2018-12-11T02:52:45.323Z,6.60
2018-12-11T02:53:49.570Z,6.60
2018-12-11T02:54:54.489Z,6.60
2018-12-11T02:55:58.702Z,6.50
2018-12-11T02:57:02.997Z,6.50
2018-12-11T02:58:07.199Z,6.50
2018-12-11T02:59:11.416Z,6.50
2018-12-11T03:00:15.721Z,6.40
2018-12-11T03:01:19.854Z,6.40
2018-12-11T03:02:24.793Z,6.40
2018-12-11T03:03:30.285Z,6.40
2018-12-11T03:04:34.719Z,6.40
2018-12-11T03:05:39.895Z,6.40
2018-12-11T03:06:44.132Z,6.40
2018-12-11T03:07:48.518Z,6.40
2018-12-11T03:08:52.678Z,6.40
2018-12-11T03:09:57.199Z,6.40
2018-12-11T03:11:01.748Z,6.40
2018-12-11T03:12:06.293Z,6.40
2018-12-11T03:13:10.710Z,6.40
2018-12-11T03:14:15.065Z,6.40
2018-12-11T03:15:19.265Z,6.50
2018-12-11T03:16:23.467Z,6.50
2018-12-11T03:17:27.739Z,6.50
2018-12-11T03:18:32.370Z,6.50
2018-12-11T03:19:36.472Z,6.50
2018-12-11T03:20:40.894Z,6.50
2018-12-11T03:21:45.123Z,6.40
2018-12-11T03:22:49.327Z,6.40
2018-12-11T03:23:53.707Z,6.40
2018-12-11T03:24:58.626Z,6.40
2018-12-11T03:26:02.915Z,6.40
2018-12-11T03:27:07.199Z,6.40
2018-12-11T03:28:11.447Z,6.40
2018-12-11T03:29:16.912Z,6.40
2018-12-11T03:30:21.522Z,6.40
2018-12-11T03:31:25.947Z,6.40
2018-12-11T03:32:30.231Z,6.30
2018-12-11T03:33:34.560Z,6.30
2018-12-11T03:34:38.866Z,6.40
2018-12-11T03:35:43.134Z,6.40
2018-12-11T03:36:48.006Z,6.40
2018-12-11T03:37:52.270Z,6.40
2018-12-11T03:38:56.488Z,6.40
2018-12-11T03:40:00.865Z,6.40
2018-12-11T03:41:05.193Z,6.40
2018-12-11T03:43:39.205Z,6.30
2018-12-11T03:44:43.584Z,6.30
2018-12-11T03:45:47.822Z,6.30
2018-12-11T03:46:52.116Z,6.30
2018-12-11T03:47:56.518Z,6.30
2018-12-11T03:49:01.261Z,6.30
2018-12-11T03:50:05.930Z,6.30
2018-12-11T03:51:10.330Z,6.30
2018-12-11T03:52:21.177Z,6.30
2018-12-11T03:53:21.284Z,6.30
2018-12-11T03:54:25.798Z,6.30
2018-12-11T03:55:30.796Z,6.30
2018-12-11T03:56:35.676Z,6.30
2018-12-11T03:57:40.097Z,6.30
2018-12-11T03:58:44.306Z,6.30
2018-12-11T03:59:48.889Z,6.20
2018-12-11T04:00:53.142Z,6.20
2018-12-11T04:01:57.892Z,6.20
2018-12-11T04:03:02.120Z,6.20
2018-12-11T04:04:06.738Z,6.20
2018-12-11T04:05:10.976Z,6.20
2018-12-11T04:06:15.336Z,6.30
2018-12-11T04:07:19.688Z,6.30
2018-12-11T04:08:24.995Z,6.20
2018-12-11T04:09:29.280Z,6.20
2018-12-11T04:10:33.656Z,6.20
2018-12-11T04:11:38.057Z,6.30
2018-12-11T04:12:42.341Z,6.20
2018-12-11T04:13:46.570Z,6.20
2018-12-11T04:14:51.354Z,6.20
2018-12-11T04:15:56.731Z,6.20
2018-12-11T04:17:02.093Z,6.20
2018-12-11T04:18:06.345Z,6.20
2018-12-11T04:19:11.676Z,6.20
2018-12-11T04:20:16.079Z,6.20
2018-12-11T04:21:20.622Z,6.20
2018-12-11T04:22:25.313Z,6.20
2018-12-11T04:23:29.612Z,6.30
2018-12-11T04:24:34.106Z,6.20
2018-12-11T04:25:38.622Z,6.20
2018-12-11T04:26:42.854Z,6.20
2018-12-11T04:27:47.561Z,6.20
2018-12-11T04:28:52.719Z,6.20
2018-12-11T04:29:57.168Z,6.20
2018-12-11T04:31:01.368Z,6.20
2018-12-11T04:32:05.429Z,6.20
2018-12-11T04:33:09.591Z,6.20
2018-12-11T04:34:14.058Z,6.10
2018-12-11T04:35:18.360Z,6.10
2018-12-11T04:36:22.648Z,6.20
2018-12-11T04:37:26.839Z,6.20
2018-12-11T04:38:30.989Z,6.20
2018-12-11T04:39:35.308Z,6.20
2018-12-11T04:40:41.352Z,6.10
2018-12-11T04:41:45.833Z,6.10
2018-12-11T04:42:49.948Z,6.20
2018-12-11T04:43:54.066Z,6.20
2018-12-11T04:45:59.196Z,6.10
2018-12-11T04:47:03.383Z,6.10
2018-12-11T04:48:09.082Z,6.10
2018-12-11T04:49:13.090Z,6.10
2018-12-11T04:50:17.157Z,6.10
2018-12-11T04:51:21.182Z,6.10
2018-12-11T04:52:25.332Z,6.10
2018-12-11T04:53:29.429Z,6.10
2018-12-11T04:54:34.050Z,6.10
2018-12-11T04:55:38.094Z,6.20
2018-12-11T04:56:42.202Z,6.20
2018-12-11T04:57:46.264Z,6.20
2018-12-11T04:58:50.314Z,6.20
2018-12-11T04:59:54.418Z,6.20
2018-12-11T05:00:58.532Z,6.20
2018-12-11T05:02:02.612Z,6.20
2018-12-11T05:03:06.783Z,6.20
2018-12-11T05:04:11.828Z,6.20
2018-12-11T05:05:15.969Z,6.20
2018-12-11T05:06:19.988Z,6.20
2018-12-11T05:07:23.985Z,6.20
2018-12-11T05:08:28.451Z,6.20
2018-12-11T05:09:32.512Z,6.20
2018-12-11T05:10:36.528Z,6.20
2018-12-11T05:11:40.673Z,6.20
2018-12-11T05:12:45.603Z,6.30
2018-12-11T05:13:49.639Z,6.30
2018-12-11T05:14:53.801Z,6.30
2018-12-11T05:15:58.010Z,6.30
2018-12-11T05:17:02.802Z,6.40
2018-12-11T05:18:07.248Z,6.40
2018-12-11T05:19:13.125Z,6.30
2018-12-11T05:20:18.196Z,6.30
2018-12-11T05:21:22.288Z,6.30
2018-12-11T05:22:28.430Z,6.20
2018-12-11T05:23:33.191Z,6.20
2018-12-11T05:24:37.898Z,6.20
2018-12-11T05:25:41.984Z,6.20
2018-12-11T05:26:46.309Z,6.20
2018-12-11T05:27:50.353Z,6.10
2018-12-11T05:28:55.762Z,6.20
2018-12-11T05:30:00.208Z,6.20
2018-12-11T05:31:04.825Z,6.20
2018-12-11T05:32:10.401Z,6.20
2018-12-11T05:34:19.175Z,6.20
2018-12-11T05:35:23.525Z,6.20
2018-12-11T05:36:31.876Z,6.20
2018-12-11T05:37:36.585Z,6.20
2018-12-11T05:38:42.057Z,6.20
2018-12-11T05:39:46.189Z,6.20
2018-12-11T05:40:50.320Z,6.20
2018-12-11T05:41:55.887Z,6.20
2018-12-11T05:43:03.473Z,6.20
2018-12-11T05:44:07.563Z,6.20
2018-12-11T05:45:11.701Z,6.20
2018-12-11T05:46:16.040Z,6.20
2018-12-11T05:47:20.775Z,6.20
2018-12-11T05:48:24.879Z,6.20
2018-12-11T05:49:30.078Z,6.20
2018-12-11T05:50:34.493Z,6.20
2018-12-11T05:51:38.736Z,6.20
2018-12-11T05:52:43.025Z,6.20
2018-12-11T05:53:47.563Z,6.30
2018-12-11T05:54:51.788Z,6.20
2018-12-11T05:55:56.820Z,6.30
2018-12-11T05:57:03.015Z,6.20
2018-12-11T05:58:07.317Z,6.20
2018-12-11T05:59:12.180Z,6.20
2018-12-11T06:00:17.009Z,6.30
2018-12-11T06:01:21.354Z,6.30
2018-12-11T06:02:27.360Z,6.30
2018-12-11T06:03:32.328Z,6.30
2018-12-11T06:04:36.527Z,6.30
2018-12-11T06:05:40.825Z,6.30
2018-12-11T06:06:45.117Z,6.30
2018-12-11T06:07:50.255Z,6.30
2018-12-11T06:08:54.755Z,6.30
2018-12-11T06:09:59.012Z,6.30
2018-12-11T06:11:03.156Z,6.30
2018-12-11T06:12:08.386Z,6.20
2018-12-11T06:13:12.556Z,6.20
2018-12-11T06:14:16.583Z,6.20
2018-12-11T06:15:20.976Z,6.20
2018-12-11T06:16:25.504Z,6.20
2018-12-11T06:17:29.542Z,6.20
2018-12-11T06:18:33.871Z,6.20
2018-12-11T06:19:38.295Z,6.20
2018-12-11T06:20:43.450Z,6.20
2018-12-11T06:21:47.857Z,6.20
2018-12-11T06:22:51.986Z,6.20
2018-12-11T06:23:56.004Z,6.20
2018-12-11T06:25:00.078Z,6.20
2018-12-11T06:26:08.797Z,6.20
2018-12-11T06:27:13.254Z,6.20
2018-12-11T06:28:17.841Z,6.20
2018-12-11T06:29:22.078Z,6.30
2018-12-11T06:30:26.478Z,6.30
2018-12-11T06:31:31.628Z,6.40
2018-12-11T06:32:35.678Z,6.40
2018-12-11T06:33:40.961Z,6.40
2018-12-11T06:34:45.200Z,6.40
2018-12-11T06:35:49.777Z,6.40
2018-12-11T06:36:54.683Z,6.40
2018-12-11T06:37:58.779Z,6.30
2018-12-11T06:39:04.653Z,6.40
2018-12-11T06:40:09.467Z,6.40
2018-12-11T06:41:15.752Z,6.30
2018-12-11T06:42:22.676Z,6.30
2018-12-11T06:43:26.998Z,6.30
2018-12-11T06:44:31.254Z,6.30
2018-12-11T06:45:37.117Z,6.30
2018-12-11T06:46:41.531Z,6.30
2018-12-11T06:49:14.803Z,6.20
2018-12-11T06:50:19.009Z,6.30
2018-12-11T06:51:23.971Z,6.30
2018-12-11T06:52:28.633Z,6.30
2018-12-11T06:53:32.904Z,6.30
2018-12-11T06:54:36.992Z,6.30
2018-12-11T06:55:41.337Z,6.30
2018-12-11T06:56:46.488Z,6.30
2018-12-11T06:57:50.565Z,6.30
2018-12-11T06:58:55.243Z,6.30
2018-12-11T06:59:59.441Z,6.20
2018-12-11T07:01:03.697Z,6.20
2018-12-11T07:02:08.922Z,6.20
2018-12-11T07:03:14.542Z,6.20
2018-12-11T07:04:18.853Z,6.20
2018-12-11T07:05:23.274Z,6.20
2018-12-11T07:06:27.651Z,6.20
2018-12-11T07:07:31.810Z,6.30
2018-12-11T07:08:36.122Z,6.30
2018-12-11T07:09:40.257Z,6.30
2018-12-11T07:10:44.268Z,6.30
2018-12-11T07:11:48.340Z,6.30
2018-12-11T07:12:52.656Z,6.30
2018-12-11T07:13:56.807Z,6.40
2018-12-11T07:15:01.173Z,6.40
2018-12-11T07:16:06.052Z,6.30
2018-12-11T07:17:10.720Z,6.30
2018-12-11T07:18:15.777Z,6.30
2018-12-11T07:19:19.887Z,6.30
2018-12-11T07:20:23.935Z,6.30
2018-12-11T07:21:28.807Z,6.30
2018-12-11T07:22:33.351Z,6.30
2018-12-11T07:23:37.896Z,6.30
2018-12-11T07:24:43.351Z,6.30
2018-12-11T07:25:47.330Z,6.20
2018-12-11T07:26:51.772Z,6.20
2018-12-11T07:27:56.399Z,6.30
2018-12-11T07:29:00.960Z,6.20
2018-12-11T07:30:05.982Z,6.20
2018-12-11T07:31:10.330Z,6.20
2018-12-11T07:32:16.513Z,6.20
2018-12-11T07:33:21.734Z,6.20
2018-12-11T07:34:26.967Z,6.20
2018-12-11T07:35:32.090Z,6.20
2018-12-11T07:36:36.171Z,6.20
2018-12-11T07:37:40.306Z,6.20
2018-12-11T07:38:44.385Z,6.20
2018-12-11T07:39:49.288Z,6.20
2018-12-11T07:40:53.505Z,6.20
2018-12-11T07:41:57.648Z,6.20
2018-12-11T07:43:03.252Z,6.20
2018-12-11T07:44:07.345Z,6.20
2018-12-11T07:45:12.722Z,6.30
2018-12-11T07:46:16.831Z,6.30
2018-12-11T07:47:21.756Z,6.30
2018-12-11T07:48:27.305Z,6.40
2018-12-11T07:49:31.757Z,6.30
2018-12-11T07:51:07.437Z,6.30
2018-12-11T07:52:11.501Z,6.30
2018-12-11T07:53:16.369Z,6.30
2018-12-11T07:54:20.635Z,6.40
2018-12-11T07:55:25.814Z,6.40
2018-12-11T07:56:31.255Z,6.40
2018-12-11T07:57:35.669Z,6.40
2018-12-11T07:58:39.662Z,6.40
2018-12-11T07:59:45.268Z,6.40
2018-12-11T08:00:49.375Z,6.30
2018-12-11T08:01:54.827Z,6.30
2018-12-11T08:02:59.242Z,6.30
2018-12-11T08:04:03.310Z,6.30
2018-12-11T08:05:07.453Z,6.20
2018-12-11T08:06:12.047Z,6.20
2018-12-11T08:07:16.979Z,6.20
2018-12-11T08:08:27.706Z,6.20
2018-12-11T08:09:33.486Z,6.20
2018-12-11T08:10:38.242Z,6.20
2018-12-11T08:11:42.773Z,6.20
2018-12-11T08:12:48.277Z,6.10
2018-12-11T08:13:52.542Z,6.20
2018-12-11T08:14:56.613Z,6.20
2018-12-11T08:16:01.491Z,6.20
2018-12-11T08:17:05.873Z,6.20
2018-12-11T08:18:11.837Z,6.20
2018-12-11T08:19:16.181Z,6.10
2018-12-11T08:20:20.503Z,6.20
2018-12-11T08:21:24.541Z,6.20
2018-12-11T08:22:29.346Z,6.20
2018-12-11T08:23:33.480Z,6.20
2018-12-11T08:24:38.086Z,6.20
2018-12-11T08:25:44.654Z,6.20
2018-12-11T08:26:49.295Z,6.20
2018-12-11T08:27:53.644Z,6.10
2018-12-11T08:28:58.872Z,6.10
2018-12-11T08:30:06.241Z,6.10
2018-12-11T08:31:11.117Z,6.20
2018-12-11T08:32:15.607Z,6.10
2018-12-11T08:33:23.464Z,6.10
2018-12-11T08:34:28.760Z,6.10
2018-12-11T08:35:34.493Z,6.10
2018-12-11T08:36:39.092Z,6.10
2018-12-11T08:37:43.816Z,6.10
2018-12-11T08:38:49.123Z,6.10
2018-12-11T08:39:56.494Z,6.10
2018-12-11T08:41:01.602Z,6.10
2018-12-11T08:42:05.697Z,6.20
2018-12-11T08:43:13.392Z,6.20
2018-12-11T08:44:18.813Z,6.20
2018-12-11T08:45:23.661Z,6.20
2018-12-11T08:46:27.772Z,6.20
2018-12-11T08:47:32.385Z,6.20
2018-12-11T08:48:36.393Z,6.20
2018-12-11T08:49:41.475Z,6.20
2018-12-11T08:50:46.059Z,6.20
2018-12-11T08:51:51.398Z,6.30
2018-12-11T08:52:59.195Z,6.30
2018-12-11T08:54:04.579Z,6.30
2018-12-11T08:55:08.756Z,6.40
2018-12-11T08:56:12.901Z,6.40
2018-12-11T08:57:20.211Z,6.50
2018-12-11T08:58:25.201Z,6.40
2018-12-11T08:59:31.768Z,6.40
2018-12-11T09:00:36.141Z,6.40
2018-12-11T09:01:40.188Z,6.40
2018-12-11T09:02:59.524Z,6.40
2018-12-11T09:04:03.723Z,6.50
2018-12-11T09:05:07.849Z,6.50
2018-12-11T09:06:12.440Z,6.60
2018-12-11T09:07:18.521Z,6.60
2018-12-11T09:08:22.594Z,6.70
2018-12-11T09:09:27.390Z,6.60
2018-12-11T09:10:31.836Z,6.60
2018-12-11T09:11:38.441Z,6.50
2018-12-11T09:12:43.103Z,6.50
2018-12-11T09:13:48.759Z,6.50
2018-12-11T09:14:55.477Z,6.60
2018-12-11T09:16:00.150Z,6.60
2018-12-11T09:17:10.042Z,6.60
2018-12-11T09:18:10.689Z,6.60
2018-12-11T09:19:15.090Z,6.50
2018-12-11T09:20:19.465Z,6.50
2018-12-11T09:21:23.725Z,6.60
2018-12-11T09:22:28.413Z,6.60
2018-12-11T09:23:32.665Z,6.60
2018-12-11T09:24:37.621Z,6.60
2018-12-11T09:25:42.474Z,6.60
2018-12-11T09:26:47.629Z,6.60
2018-12-11T09:27:53.162Z,6.60
2018-12-11T09:28:57.348Z,6.60
2018-12-11T09:30:01.587Z,6.60
2018-12-11T09:31:06.671Z,6.60
2018-12-11T09:32:11.280Z,6.60
2018-12-11T09:33:16.570Z,6.60
2018-12-11T09:34:21.441Z,6.60
2018-12-11T09:35:25.780Z,6.60
2018-12-11T09:36:30.261Z,6.60
2018-12-11T09:37:34.583Z,6.60
2018-12-11T09:38:41.178Z,6.60
2018-12-11T09:39:45.897Z,6.60
2018-12-11T09:40:51.299Z,6.60
2018-12-11T09:41:56.720Z,6.60
2018-12-11T09:43:02.217Z,6.60
2018-12-11T09:44:07.425Z,6.60
2018-12-11T09:45:13.506Z,6.70
2018-12-11T09:46:17.620Z,6.60
2018-12-11T09:47:25.579Z,6.60
2018-12-11T09:48:29.844Z,6.60
2018-12-11T09:49:42.161Z,6.60
2018-12-11T09:50:48.046Z,6.60
2018-12-11T09:51:52.678Z,6.60
2018-12-11T09:52:57.090Z,6.60
2018-12-11T09:54:02.066Z,6.60
2018-12-11T09:55:12.707Z,6.60
2018-12-11T09:56:17.839Z,6.60
2018-12-11T09:57:22.819Z,6.60
2018-12-11T09:58:27.805Z,6.60
2018-12-11T09:59:33.014Z,6.60
2018-12-11T10:00:37.418Z,6.70
2018-12-11T10:01:42.402Z,6.60
2018-12-11T10:02:46.689Z,6.60
2018-12-11T10:03:51.534Z,6.60
2018-12-11T10:04:57.174Z,6.50
2018-12-11T10:06:02.992Z,6.50
2018-12-11T10:07:07.336Z,6.50
2018-12-11T10:08:12.386Z,6.60
2018-12-11T10:09:16.499Z,6.60
2018-12-11T10:10:20.623Z,6.60
2018-12-11T10:11:24.972Z,6.60
2018-12-11T10:12:29.476Z,6.60
2018-12-11T10:13:35.070Z,6.60
2018-12-11T10:14:42.639Z,6.60
2018-12-11T10:15:47.613Z,6.60
2018-12-11T10:16:52.201Z,6.60
2018-12-11T10:17:56.520Z,6.60
2018-12-11T10:19:03.622Z,6.70
2018-12-11T10:20:11.340Z,6.70
2018-12-11T10:21:15.861Z,6.70
2018-12-11T10:22:21.248Z,6.80
2018-12-11T10:23:31.716Z,6.90
2018-12-11T10:24:36.441Z,6.90
2018-12-11T10:25:45.070Z,6.90
2018-12-11T10:26:49.483Z,6.90
2018-12-11T10:27:56.102Z,6.90
2018-12-11T10:29:02.119Z,6.90
2018-12-11T10:30:08.931Z,6.90
2018-12-11T10:31:13.846Z,6.90
2018-12-11T10:32:19.792Z,6.90
2018-12-11T10:34:47.012Z,6.80
2018-12-11T10:35:52.726Z,6.90
2018-12-11T10:37:05.180Z,6.90
2018-12-11T10:38:14.018Z,6.90
2018-12-11T10:39:19.223Z,6.90
2018-12-11T10:40:23.922Z,6.90
2018-12-11T10:41:28.772Z,6.90
2018-12-11T10:42:38.166Z,6.90
2018-12-11T10:43:42.856Z,6.90
2018-12-11T10:44:49.321Z,6.90
2018-12-11T10:45:53.856Z,6.90
2018-12-11T10:47:00.150Z,6.90
2018-12-11T10:48:08.333Z,6.90
2018-12-11T10:49:12.999Z,7.00
2018-12-11T10:50:18.871Z,7.10
2018-12-11T10:51:25.918Z,7.10
2018-12-11T10:52:30.874Z,7.20
2018-12-11T10:53:36.732Z,7.20
2018-12-11T10:54:43.010Z,7.30
2018-12-11T10:55:49.229Z,7.30
2018-12-11T10:56:56.561Z,7.40
2018-12-11T10:58:05.273Z,7.30
2018-12-11T10:59:10.319Z,7.30
2018-12-11T11:00:20.366Z,7.40
2018-12-11T11:01:27.783Z,7.40
2018-12-11T11:02:37.659Z,7.40
2018-12-11T11:03:43.213Z,7.40
2018-12-11T11:04:47.830Z,7.40
2018-12-11T11:05:53.293Z,7.40
2018-12-11T11:06:59.337Z,7.40
2018-12-11T11:08:12.218Z,7.40
2018-12-11T11:09:18.990Z,7.50
2018-12-11T11:10:23.175Z,7.50
2018-12-11T11:11:29.136Z,7.50
2018-12-11T11:12:33.579Z,7.50
2018-12-11T11:13:39.111Z,7.60
2018-12-11T11:14:43.237Z,7.60
2018-12-11T11:15:48.127Z,7.70
2018-12-11T11:16:52.562Z,7.70
2018-12-11T11:18:00.718Z,7.80
2018-12-11T11:19:04.883Z,7.80
2018-12-11T11:20:21.761Z,7.80
2018-12-11T11:21:25.830Z,7.80
2018-12-11T11:22:30.137Z,7.80
2018-12-11T11:23:34.272Z,7.70
2018-12-11T11:24:38.359Z,7.70
2018-12-11T11:25:43.371Z,7.70
2018-12-11T11:26:47.726Z,7.60
2018-12-11T11:27:52.190Z,7.70
2018-12-11T11:28:57.319Z,7.60
2018-12-11T11:30:02.816Z,7.60
2018-12-11T11:31:07.361Z,7.70
2018-12-11T11:32:13.610Z,7.60
2018-12-11T11:33:18.243Z,7.60
2018-12-11T11:34:23.662Z,7.60
2018-12-11T11:35:28.065Z,7.70
2018-12-11T11:36:32.952Z,7.70
2018-12-11T11:37:40.734Z,7.70
2018-12-11T11:38:46.245Z,7.70
2018-12-11T11:39:50.767Z,7.80
2018-12-11T11:40:55.554Z,7.90
2018-12-11T11:42:01.191Z,8.00
2018-12-11T11:43:06.020Z,8.00
2018-12-11T11:44:11.317Z,8.00
2018-12-11T11:45:16.151Z,8.10
2018-12-11T11:46:22.296Z,8.10
2018-12-11T11:47:29.044Z,8.10
2018-12-11T11:48:33.616Z,8.20
2018-12-11T11:49:37.979Z,8.30
2018-12-11T11:50:45.352Z,8.30
2018-12-11T11:51:50.700Z,8.40
2018-12-11T11:52:57.075Z,8.40
2018-12-11T11:54:03.948Z,8.40
2018-12-11T11:55:08.482Z,8.30
2018-12-11T11:56:13.666Z,8.30
2018-12-11T11:57:19.254Z,8.30
2018-12-11T11:58:27.564Z,8.20
2018-12-11T11:59:33.002Z,8.10
2018-12-11T12:00:44.210Z,8.10
2018-12-11T12:01:49.305Z,8.10
2018-12-11T12:02:55.334Z,8.10
2018-12-11T12:04:01.549Z,8.10
2018-12-11T12:05:06.712Z,8.10
2018-12-11T12:06:11.137Z,8.10
2018-12-11T12:07:16.085Z,8.10
2018-12-11T12:08:25.594Z,8.10
2018-12-11T12:09:33.263Z,8.10
2018-12-11T12:10:43.778Z,8.10
2018-12-11T12:11:53.208Z,8.00
2018-12-11T12:12:57.667Z,8.00
2018-12-11T12:14:03.261Z,7.90
2018-12-11T12:15:18.033Z,7.90
2018-12-11T12:16:24.656Z,7.90
2018-12-11T12:17:30.105Z,7.90
2018-12-11T12:18:38.047Z,7.90
2018-12-11T12:19:45.617Z,7.90
2018-12-11T12:20:51.359Z,7.90
2018-12-11T12:21:58.405Z,8.00
2018-12-11T12:23:06.300Z,8.00
2018-12-11T12:24:13.918Z,8.20
2018-12-11T12:25:18.479Z,8.40
2018-12-11T12:26:25.286Z,8.60
2018-12-11T12:27:30.490Z,8.70
2018-12-11T12:28:35.646Z,8.80
2018-12-11T12:29:39.658Z,8.90
2018-12-11T12:30:45.314Z,9.00
2018-12-11T12:31:49.574Z,8.90
2018-12-11T12:32:54.055Z,8.90
2018-12-11T12:33:58.370Z,9.20
2018-12-11T12:35:02.484Z,9.50
2018-12-11T12:36:08.093Z,9.70
2018-12-11T12:37:14.674Z,9.90
2018-12-11T12:38:18.712Z,10.10
2018-12-11T12:39:27.767Z,10.30
2018-12-11T12:40:33.170Z,10.50
2018-12-11T12:41:37.386Z,10.70
2018-12-11T12:42:42.342Z,11.00
2018-12-11T12:43:47.924Z,11.20
2018-12-11T12:44:52.200Z,11.20
2018-12-11T12:45:56.264Z,11.20
2018-12-11T12:47:01.197Z,11.20
2018-12-11T12:48:05.466Z,11.30
2018-12-11T12:49:10.660Z,11.20
2018-12-11T12:50:14.791Z,11.10
2018-12-11T12:51:19.309Z,11.00
2018-12-11T12:52:23.674Z,10.80
2018-12-11T12:53:28.086Z,10.60
2018-12-11T12:54:35.062Z,10.40
2018-12-11T12:55:39.102Z,10.10
2018-12-11T12:56:43.577Z,9.90
2018-12-11T12:57:48.180Z,9.70
2018-12-11T12:58:53.669Z,9.60
2018-12-11T12:59:57.988Z,9.40
2018-12-11T13:01:02.320Z,9.20
2018-12-11T13:02:06.472Z,9.10
2018-12-11T13:03:11.193Z,9.00
2018-12-11T13:04:18.058Z,8.80
2018-12-11T13:05:22.334Z,8.70
2018-12-11T13:06:29.971Z,8.50
2018-12-11T13:07:34.364Z,8.50
2018-12-11T13:08:38.557Z,8.30
2018-12-11T13:09:43.186Z,8.20
2018-12-11T13:10:47.334Z,8.10
2018-12-11T13:11:51.598Z,8.00
2018-12-11T13:12:55.651Z,7.90
2018-12-11T13:13:59.955Z,7.80
2018-12-11T13:15:07.686Z,7.80
2018-12-11T13:16:12.914Z,7.70
2018-12-11T13:17:17.556Z,7.70
2018-12-11T13:18:22.674Z,7.60
2018-12-11T13:19:35.656Z,7.60
2018-12-11T13:20:39.758Z,7.60
2018-12-11T13:21:47.118Z,7.60
2018-12-11T13:22:51.408Z,7.60
2018-12-11T13:23:57.363Z,7.60
2018-12-11T13:25:02.278Z,7.60
2018-12-11T13:26:06.623Z,7.50
2018-12-11T13:27:11.207Z,7.50
2018-12-11T13:28:15.295Z,7.60
2018-12-11T13:29:20.575Z,7.50
2018-12-11T13:30:24.599Z,7.50
2018-12-11T13:31:29.622Z,7.50
2018-12-11T13:32:33.766Z,7.50
2018-12-11T13:33:45.533Z,7.40
2018-12-11T13:34:51.092Z,7.40
2018-12-11T13:35:57.650Z,7.40
2018-12-11T13:37:04.883Z,7.40
2018-12-11T13:38:13.872Z,7.40
2018-12-11T13:39:18.666Z,7.40
2018-12-11T13:40:24.038Z,7.40
2018-12-11T13:41:28.392Z,7.40
2018-12-11T13:42:35.671Z,7.30
2018-12-11T13:43:40.233Z,7.40
2018-12-11T13:44:45.654Z,7.40
2018-12-11T13:45:50.800Z,7.40
2018-12-11T13:46:57.792Z,7.40
2018-12-11T13:48:02.748Z,7.40
2018-12-11T13:49:08.229Z,7.40
2018-12-11T13:50:13.475Z,7.40
2018-12-11T13:51:20.973Z,7.40
2018-12-11T13:52:25.876Z,7.50
2018-12-11T13:53:31.696Z,7.50
2018-12-11T13:54:42.786Z,7.50
2018-12-11T13:55:53.101Z,7.50
2018-12-11T13:56:57.133Z,7.50
2018-12-11T13:58:02.496Z,7.50
2018-12-11T13:59:07.473Z,7.40
2018-12-11T14:00:14.429Z,7.40
2018-12-11T14:01:20.812Z,7.40
2018-12-11T14:02:26.602Z,7.40
2018-12-11T14:03:32.082Z,7.40
2018-12-11T14:04:40.203Z,7.40
2018-12-11T14:05:45.740Z,7.30
2018-12-11T14:06:49.850Z,7.30
2018-12-11T14:07:54.150Z,7.30
2018-12-11T14:09:00.783Z,7.40
2018-12-11T14:10:06.861Z,7.40
2018-12-11T14:11:13.647Z,7.40
2018-12-11T14:12:18.729Z,7.50
2018-12-11T14:13:28.220Z,7.50
2018-12-11T14:14:33.584Z,7.40
2018-12-11T14:15:37.710Z,7.40
2018-12-11T14:16:42.547Z,7.40
2018-12-11T14:17:46.760Z,7.40
2018-12-11T14:18:51.764Z,7.40
2018-12-11T14:19:56.183Z,7.40
2018-12-11T14:21:00.296Z,7.40
2018-12-11T14:22:05.038Z,7.40
2018-12-11T14:23:10.445Z,7.40
2018-12-11T14:24:15.808Z,7.40
2018-12-11T14:25:22.219Z,7.40
2018-12-11T14:26:26.414Z,7.40
2018-12-11T14:27:31.581Z,7.40
2018-12-11T14:28:36.210Z,7.40
2018-12-11T14:29:40.358Z,7.40
2018-12-11T14:30:45.054Z,7.40
2018-12-11T14:31:50.566Z,7.40
2018-12-11T14:32:54.786Z,7.40
2018-12-11T14:33:59.156Z,7.40
2018-12-11T14:35:03.826Z,7.40